Main page
METAR-TAF:

METAR-TAF

Airports :

Mashhad International Airport

Mashhad, Iran

latitude: 36-16N, longitude: 059-38E, elevation: 989 m

Current weather observation

The report was made 10 minutes ago, at 21:00 UTC
Calm wind
Temperature 8°C
Humidity 71%
Pressure 1017 hPa
Visibility 10 km or more
no clouds below 1500 m and no cumulonimbus

METAR: OIMM 212100Z 00000KT CAVOK 08/03 Q1017 A3003

Time: 00:40 (21:10 UTC)

Forecast

The report was made 3 hours and 10 minutes ago, at 18:00 UTC
Forecast valid from 21 at 18 UTC to 22 at 24 UTC
Wind 8 kt from the West/Southwest
Visibility: 4000 m
Few clouds at a height of 3000 ft
mist
Temporary
from 22 at 00 UTC to 22 at 03 UTC
Visibility: 2000 m
mist
Becoming
from 22 at 05 UTC to 22 at 07 UTC
Wind 14 kt from the West/Southwest
Visibility: 7000 m
Few clouds at a height of 4000 ft

TAF: OIMM 211800Z 2118/2224 25004MPS 4000 BR FEW030 TEMPO 2200/2203 2000 BR BECMG 2205/2207 24007MPS 7000 FEW040

Weather observations and forecasts of more than 4000 airports (METAR and TAF reports).

The available stations are represented by yellow and red dots on the map.

Hover mouse over dot to see the name of the station.

Then click to see weather observations and forecasts.

To change the map : click on the green buttons with a black cross to zoom in, on the green button with a dash to zoom out, or on the green arrows for adjacent maps.


METAR-TAF: